sensor_id;sensor_type;location;lat;lon;timestamp;P1;durP1;ratioP1;P2;durP2;ratioP2
52210;SDS011;38179;52.756;6.906;2023-05-15T00:00:09;46.60;;;39.00;;
52210;SDS011;38179;52.756;6.906;2023-05-15T00:02:35;46.33;;;39.22;;
52210;SDS011;38179;52.756;6.906;2023-05-15T00:05:02;49.78;;;40.03;;
52210;SDS011;38179;52.756;6.906;2023-05-15T00:07:29;45.22;;;38.63;;
52210;SDS011;38179;52.756;6.906;2023-05-15T00:09:55;49.58;;;40.63;;
52210;SDS011;38179;52.756;6.906;2023-05-15T00:12:21;46.88;;;40.03;;
52210;SDS011;38179;52.756;6.906;2023-05-15T00:14:47;48.13;;;38.53;;
52210;SDS011;38179;52.756;6.906;2023-05-15T00:17:13;47.55;;;39.95;;
52210;SDS011;38179;52.756;6.906;2023-05-15T00:19:39;49.92;;;40.03;;
52210;SDS011;38179;52.756;6.906;2023-05-15T00:22:04;45.60;;;38.85;;
52210;SDS011;38179;52.756;6.906;2023-05-15T00:24:30;46.20;;;39.28;;
52210;SDS011;38179;52.756;6.906;2023-05-15T00:26:57;45.17;;;38.10;;
52210;SDS011;38179;52.756;6.906;2023-05-15T00:29:24;49.25;;;39.97;;
52210;SDS011;38179;52.756;6.906;2023-05-15T00:31:50;49.60;;;41.47;;
52210;SDS011;38179;52.756;6.906;2023-05-15T00:34:16;46.47;;;39.25;;
52210;SDS011;38179;52.756;6.906;2023-05-15T00:36:42;49.28;;;40.03;;
52210;SDS011;38179;52.756;6.906;2023-05-15T00:39:08;51.25;;;40.63;;
52210;SDS011;38179;52.756;6.906;2023-05-15T00:41:34;52.22;;;41.42;;
52210;SDS011;38179;52.756;6.906;2023-05-15T00:44:01;50.75;;;40.55;;
52210;SDS011;38179;52.756;6.906;2023-05-15T00:46:29;53.75;;;41.50;;
52210;SDS011;38179;52.756;6.906;2023-05-15T00:48:56;51.88;;;41.58;;
52210;SDS011;38179;52.756;6.906;2023-05-15T00:51:23;54.90;;;41.40;;
52210;SDS011;38179;52.756;6.906;2023-05-15T00:53:50;51.40;;;41.22;;
52210;SDS011;38179;52.756;6.906;2023-05-15T00:56:16;51.38;;;40.80;;
52210;SDS011;38179;52.756;6.906;2023-05-15T00:58:46;50.78;;;39.40;;
52210;SDS011;38179;52.756;6.906;2023-05-15T01:01:14;53.63;;;41.10;;
52210;SDS011;38179;52.756;6.906;2023-05-15T01:03:41;51.33;;;40.42;;
52210;SDS011;38179;52.756;6.906;2023-05-15T01:06:08;59.72;;;45.03;;
52210;SDS011;38179;52.756;6.906;2023-05-15T01:08:47;57.92;;;44.28;;
52210;SDS011;38179;52.756;6.906;2023-05-15T01:11:15;63.58;;;45.50;;
52210;SDS011;38179;52.756;6.906;2023-05-15T01:13:42;56.83;;;43.72;;
52210;SDS011;38179;52.756;6.906;2023-05-15T01:16:09;60.85;;;46.08;;
52210;SDS011;38179;52.756;6.906;2023-05-15T01:18:35;83.97;;;44.17;;
52210;SDS011;38179;52.756;6.906;2023-05-15T01:32:16;56.30;;;44.92;;
52210;SDS011;38179;52.756;6.906;2023-05-15T01:37:26;59.95;;;45.08;;
52210;SDS011;38179;52.756;6.906;2023-05-15T01:39:57;59.92;;;44.25;;
52210;SDS011;38179;52.756;6.906;2023-05-15T01:42:29;58.33;;;44.70;;
52210;SDS011;38179;52.756;6.906;2023-05-15T01:44:57;63.20;;;45.60;;
52210;SDS011;38179;52.756;6.906;2023-05-15T01:47:30;56.42;;;44.13;;
52210;SDS011;38179;52.756;6.906;2023-05-15T01:50:03;60.78;;;44.97;;
52210;SDS011;38179;52.756;6.906;2023-05-15T01:55:00;74.35;;;47.78;;
52210;SDS011;38179;52.756;6.906;2023-05-15T01:57:27;62.20;;;44.10;;
52210;SDS011;38179;52.756;6.906;2023-05-15T01:59:55;58.08;;;46.05;;
52210;SDS011;38179;52.756;6.906;2023-05-15T02:02:22;54.33;;;41.80;;
52210;SDS011;38179;52.756;6.906;2023-05-15T02:04:50;52.60;;;42.97;;
52210;SDS011;38179;52.756;6.906;2023-05-15T02:07:17;55.15;;;45.13;;
52210;SDS011;38179;52.756;6.906;2023-05-15T02:09:43;67.57;;;46.63;;
52210;SDS011;38179;52.756;6.906;2023-05-15T02:12:10;62.15;;;44.70;;
52210;SDS011;38179;52.756;6.906;2023-05-15T02:14:36;57.33;;;44.00;;
52210;SDS011;38179;52.756;6.906;2023-05-15T02:17:05;76.90;;;45.40;;
52210;SDS011;38179;52.756;6.906;2023-05-15T02:19:31;56.20;;;43.95;;
52210;SDS011;38179;52.756;6.906;2023-05-15T02:21:57;58.85;;;44.55;;
52210;SDS011;38179;52.756;6.906;2023-05-15T02:24:23;67.13;;;45.15;;
52210;SDS011;38179;52.756;6.906;2023-05-15T02:26:59;53.47;;;41.80;;
52210;SDS011;38179;52.756;6.906;2023-05-15T02:32:05;52.50;;;40.75;;
52210;SDS011;38179;52.756;6.906;2023-05-15T02:35:05;83.25;;;43.22;;
52210;SDS011;38179;52.756;6.906;2023-05-15T02:37:54;49.88;;;39.75;;
52210;SDS011;38179;52.756;6.906;2023-05-15T02:40:22;52.47;;;40.90;;
52210;SDS011;38179;52.756;6.906;2023-05-15T02:42:51;51.97;;;39.92;;
52210;SDS011;38179;52.756;6.906;2023-05-15T02:45:18;51.08;;;40.13;;
52210;SDS011;38179;52.756;6.906;2023-05-15T02:47:44;52.40;;;40.65;;
52210;SDS011;38179;52.756;6.906;2023-05-15T02:50:12;57.75;;;43.00;;
52210;SDS011;38179;52.756;6.906;2023-05-15T02:52:39;57.65;;;43.85;;
52210;SDS011;38179;52.756;6.906;2023-05-15T02:55:04;53.30;;;42.63;;
52210;SDS011;38179;52.756;6.906;2023-05-15T02:57:31;55.40;;;42.83;;
52210;SDS011;38179;52.756;6.906;2023-05-15T02:59:57;52.42;;;41.45;;
52210;SDS011;38179;52.756;6.906;2023-05-15T03:02:23;47.85;;;39.53;;
52210;SDS011;38179;52.756;6.906;2023-05-15T03:04:48;61.13;;;42.78;;
52210;SDS011;38179;52.756;6.906;2023-05-15T03:07:14;158.35;;;45.67;;
52210;SDS011;38179;52.756;6.906;2023-05-15T03:09:40;56.22;;;41.13;;
52210;SDS011;38179;52.756;6.906;2023-05-15T03:12:06;61.80;;;42.50;;
52210;SDS011;38179;52.756;6.906;2023-05-15T03:14:34;56.20;;;41.72;;
52210;SDS011;38179;52.756;6.906;2023-05-15T03:16:59;49.58;;;39.05;;
52210;SDS011;38179;52.756;6.906;2023-05-15T03:19:25;45.50;;;36.97;;
52210;SDS011;38179;52.756;6.906;2023-05-15T03:21:51;60.83;;;40.97;;
52210;SDS011;38179;52.756;6.906;2023-05-15T03:24:17;46.88;;;37.85;;
52210;SDS011;38179;52.756;6.906;2023-05-15T03:26:43;50.42;;;41.30;;
52210;SDS011;38179;52.756;6.906;2023-05-15T03:29:09;58.40;;;40.47;;
52210;SDS011;38179;52.756;6.906;2023-05-15T03:31:35;57.33;;;39.97;;
52210;SDS011;38179;52.756;6.906;2023-05-15T03:34:01;52.03;;;40.85;;
52210;SDS011;38179;52.756;6.906;2023-05-15T03:36:27;47.95;;;41.17;;
52210;SDS011;38179;52.756;6.906;2023-05-15T03:38:53;49.95;;;40.08;;
52210;SDS011;38179;52.756;6.906;2023-05-15T03:41:19;48.70;;;39.95;;
52210;SDS011;38179;52.756;6.906;2023-05-15T03:43:46;46.92;;;38.13;;
52210;SDS011;38179;52.756;6.906;2023-05-15T03:46:12;52.20;;;39.67;;
52210;SDS011;38179;52.756;6.906;2023-05-15T03:48:37;48.08;;;37.85;;
52210;SDS011;38179;52.756;6.906;2023-05-15T03:51:03;55.58;;;40.53;;
52210;SDS011;38179;52.756;6.906;2023-05-15T03:53:29;83.35;;;42.63;;
52210;SDS011;38179;52.756;6.906;2023-05-15T03:55:55;58.67;;;41.63;;
52210;SDS011;38179;52.756;6.906;2023-05-15T03:58:21;50.15;;;40.40;;
52210;SDS011;38179;52.756;6.906;2023-05-15T04:00:47;51.38;;;40.63;;
52210;SDS011;38179;52.756;6.906;2023-05-15T04:03:13;48.70;;;40.85;;
52210;SDS011;38179;52.756;6.906;2023-05-15T04:05:38;54.58;;;40.95;;
52210;SDS011;38179;52.756;6.906;2023-05-15T04:08:04;88.93;;;42.88;;
52210;SDS011;38179;52.756;6.906;2023-05-15T04:10:31;48.78;;;38.78;;
52210;SDS011;38179;52.756;6.906;2023-05-15T04:12:57;86.72;;;40.75;;
52210;SDS011;38179;52.756;6.906;2023-05-15T04:15:24;91.18;;;41.10;;
52210;SDS011;38179;52.756;6.906;2023-05-15T04:17:52;47.30;;;39.08;;
52210;SDS011;38179;52.756;6.906;2023-05-15T04:20:19;106.20;;;42.58;;
52210;SDS011;38179;52.756;6.906;2023-05-15T04:22:47;63.08;;;38.95;;
52210;SDS011;38179;52.756;6.906;2023-05-15T04:25:13;60.45;;;39.13;;
52210;SDS011;38179;52.756;6.906;2023-05-15T04:27:41;46.05;;;36.90;;
52210;SDS011;38179;52.756;6.906;2023-05-15T04:30:08;60.50;;;38.45;;
52210;SDS011;38179;52.756;6.906;2023-05-15T04:32:35;49.25;;;38.83;;
52210;SDS011;38179;52.756;6.906;2023-05-15T04:35:02;45.42;;;38.25;;
52210;SDS011;38179;52.756;6.906;2023-05-15T04:37:29;58.97;;;37.88;;
52210;SDS011;38179;52.756;6.906;2023-05-15T04:39:56;50.22;;;38.25;;
52210;SDS011;38179;52.756;6.906;2023-05-15T04:42:22;46.42;;;38.58;;
52210;SDS011;38179;52.756;6.906;2023-05-15T04:44:48;44.28;;;35.97;;
52210;SDS011;38179;52.756;6.906;2023-05-15T04:47:14;46.80;;;38.30;;
52210;SDS011;38179;52.756;6.906;2023-05-15T04:49:40;53.65;;;36.50;;
52210;SDS011;38179;52.756;6.906;2023-05-15T04:52:06;60.22;;;38.80;;
52210;SDS011;38179;52.756;6.906;2023-05-15T04:54:32;44.05;;;37.40;;
52210;SDS011;38179;52.756;6.906;2023-05-15T04:56:58;53.08;;;37.90;;
52210;SDS011;38179;52.756;6.906;2023-05-15T04:59:24;46.92;;;38.63;;
52210;SDS011;38179;52.756;6.906;2023-05-15T05:01:51;47.42;;;38.88;;
52210;SDS011;38179;52.756;6.906;2023-05-15T05:04:17;48.90;;;39.53;;
52210;SDS011;38179;52.756;6.906;2023-05-15T05:06:46;50.97;;;39.53;;
52210;SDS011;38179;52.756;6.906;2023-05-15T05:09:12;46.13;;;38.42;;
52210;SDS011;38179;52.756;6.906;2023-05-15T05:11:38;47.92;;;38.38;;
52210;SDS011;38179;52.756;6.906;2023-05-15T05:14:11;47.03;;;38.45;;
52210;SDS011;38179;52.756;6.906;2023-05-15T05:16:40;45.95;;;37.28;;
52210;SDS011;38179;52.756;6.906;2023-05-15T05:19:08;50.22;;;40.75;;
52210;SDS011;38179;52.756;6.906;2023-05-15T05:21:35;50.95;;;40.50;;
52210;SDS011;38179;52.756;6.906;2023-05-15T05:24:01;49.15;;;39.88;;
52210;SDS011;38179;52.756;6.906;2023-05-15T05:26:27;50.80;;;38.63;;
52210;SDS011;38179;52.756;6.906;2023-05-15T05:28:53;48.60;;;37.65;;
52210;SDS011;38179;52.756;6.906;2023-05-15T05:31:19;55.63;;;38.55;;
52210;SDS011;38179;52.756;6.906;2023-05-15T05:33:45;59.00;;;38.35;;
52210;SDS011;38179;52.756;6.906;2023-05-15T05:36:13;50.10;;;38.55;;
52210;SDS011;38179;52.756;6.906;2023-05-15T05:38:40;44.50;;;36.33;;
52210;SDS011;38179;52.756;6.906;2023-05-15T05:41:06;48.42;;;38.95;;
52210;SDS011;38179;52.756;6.906;2023-05-15T05:43:32;50.13;;;39.28;;
52210;SDS011;38179;52.756;6.906;2023-05-15T05:45:58;53.25;;;38.70;;
52210;SDS011;38179;52.756;6.906;2023-05-15T05:48:24;49.15;;;38.42;;
52210;SDS011;38179;52.756;6.906;2023-05-15T05:50:51;46.67;;;36.88;;
52210;SDS011;38179;52.756;6.906;2023-05-15T05:53:16;53.45;;;37.70;;
52210;SDS011;38179;52.756;6.906;2023-05-15T05:55:42;45.67;;;37.75;;
52210;SDS011;38179;52.756;6.906;2023-05-15T05:58:08;44.92;;;36.38;;
52210;SDS011;38179;52.756;6.906;2023-05-15T06:00:35;45.53;;;36.33;;
52210;SDS011;38179;52.756;6.906;2023-05-15T06:03:00;41.90;;;34.55;;
52210;SDS011;38179;52.756;6.906;2023-05-15T06:05:26;51.90;;;36.45;;
52210;SDS011;38179;52.756;6.906;2023-05-15T06:07:53;47.00;;;36.33;;
52210;SDS011;38179;52.756;6.906;2023-05-15T06:10:19;48.10;;;37.03;;
52210;SDS011;38179;52.756;6.906;2023-05-15T06:12:46;43.80;;;36.15;;
52210;SDS011;38179;52.756;6.906;2023-05-15T06:15:13;53.35;;;38.72;;
52210;SDS011;38179;52.756;6.906;2023-05-15T06:17:40;51.00;;;40.03;;
52210;SDS011;38179;52.756;6.906;2023-05-15T06:20:06;48.13;;;38.45;;
52210;SDS011;38179;52.756;6.906;2023-05-15T06:22:33;51.90;;;37.08;;
52210;SDS011;38179;52.756;6.906;2023-05-15T06:25:02;52.85;;;39.67;;
52210;SDS011;38179;52.756;6.906;2023-05-15T06:27:30;51.45;;;39.83;;
52210;SDS011;38179;52.756;6.906;2023-05-15T06:29:56;49.65;;;39.83;;
52210;SDS011;38179;52.756;6.906;2023-05-15T06:32:22;49.15;;;38.17;;
52210;SDS011;38179;52.756;6.906;2023-05-15T06:34:48;43.28;;;36.08;;
52210;SDS011;38179;52.756;6.906;2023-05-15T06:37:14;45.92;;;36.97;;
52210;SDS011;38179;52.756;6.906;2023-05-15T06:39:40;47.83;;;36.25;;
52210;SDS011;38179;52.756;6.906;2023-05-15T06:42:06;43.13;;;34.67;;
52210;SDS011;38179;52.756;6.906;2023-05-15T06:44:32;50.97;;;38.70;;
52210;SDS011;38179;52.756;6.906;2023-05-15T06:46:58;47.38;;;35.70;;
52210;SDS011;38179;52.756;6.906;2023-05-15T06:49:24;49.30;;;37.33;;
52210;SDS011;38179;52.756;6.906;2023-05-15T06:51:51;49.65;;;38.20;;
52210;SDS011;38179;52.756;6.906;2023-05-15T06:54:17;50.28;;;38.70;;
52210;SDS011;38179;52.756;6.906;2023-05-15T06:56:43;48.03;;;37.33;;
52210;SDS011;38179;52.756;6.906;2023-05-15T06:59:09;49.53;;;37.97;;
52210;SDS011;38179;52.756;6.906;2023-05-15T07:01:35;46.50;;;38.35;;
52210;SDS011;38179;52.756;6.906;2023-05-15T07:04:01;47.05;;;36.75;;
52210;SDS011;38179;52.756;6.906;2023-05-15T07:06:27;50.47;;;39.20;;
52210;SDS011;38179;52.756;6.906;2023-05-15T07:08:53;48.22;;;38.38;;
52210;SDS011;38179;52.756;6.906;2023-05-15T07:11:19;49.28;;;39.60;;
52210;SDS011;38179;52.756;6.906;2023-05-15T07:13:44;47.55;;;35.92;;
52210;SDS011;38179;52.756;6.906;2023-05-15T07:16:10;46.50;;;35.78;;
52210;SDS011;38179;52.756;6.906;2023-05-15T07:18:36;45.40;;;36.38;;
52210;SDS011;38179;52.756;6.906;2023-05-15T07:21:02;50.53;;;36.63;;
52210;SDS011;38179;52.756;6.906;2023-05-15T07:23:28;37.80;;;33.25;;
52210;SDS011;38179;52.756;6.906;2023-05-15T07:25:54;36.63;;;31.55;;
52210;SDS011;38179;52.756;6.906;2023-05-15T07:28:20;38.75;;;32.95;;
52210;SDS011;38179;52.756;6.906;2023-05-15T07:30:47;41.20;;;33.20;;
52210;SDS011;38179;52.756;6.906;2023-05-15T07:33:13;37.67;;;32.63;;
52210;SDS011;38179;52.756;6.906;2023-05-15T07:35:39;36.85;;;30.63;;
52210;SDS011;38179;52.756;6.906;2023-05-15T07:38:05;33.35;;;29.77;;
52210;SDS011;38179;52.756;6.906;2023-05-15T07:40:31;34.72;;;29.95;;
52210;SDS011;38179;52.756;6.906;2023-05-15T07:42:57;32.67;;;29.17;;
52210;SDS011;38179;52.756;6.906;2023-05-15T07:45:23;32.33;;;28.83;;
52210;SDS011;38179;52.756;6.906;2023-05-15T07:47:49;30.92;;;27.63;;
52210;SDS011;38179;52.756;6.906;2023-05-15T07:50:15;31.38;;;27.95;;
52210;SDS011;38179;52.756;6.906;2023-05-15T07:52:42;31.80;;;27.30;;
52210;SDS011;38179;52.756;6.906;2023-05-15T07:55:09;35.28;;;28.48;;
52210;SDS011;38179;52.756;6.906;2023-05-15T07:57:35;30.83;;;27.73;;
52210;SDS011;38179;52.756;6.906;2023-05-15T08:00:01;30.45;;;27.15;;
52210;SDS011;38179;52.756;6.906;2023-05-15T08:02:34;32.45;;;28.98;;
52210;SDS011;38179;52.756;6.906;2023-05-15T08:05:00;31.25;;;28.00;;
52210;SDS011;38179;52.756;6.906;2023-05-15T08:07:25;32.30;;;28.92;;
52210;SDS011;38179;52.756;6.906;2023-05-15T08:09:51;30.85;;;27.60;;
52210;SDS011;38179;52.756;6.906;2023-05-15T08:12:20;30.42;;;27.27;;
52210;SDS011;38179;52.756;6.906;2023-05-15T08:14:47;31.02;;;27.95;;
52210;SDS011;38179;52.756;6.906;2023-05-15T08:17:17;30.17;;;26.80;;
52210;SDS011;38179;52.756;6.906;2023-05-15T08:19:43;31.73;;;28.23;;
52210;SDS011;38179;52.756;6.906;2023-05-15T08:22:09;32.03;;;28.60;;
52210;SDS011;38179;52.756;6.906;2023-05-15T08:24:36;29.13;;;26.15;;
52210;SDS011;38179;52.756;6.906;2023-05-15T08:27:05;28.33;;;25.42;;
52210;SDS011;38179;52.756;6.906;2023-05-15T08:29:32;29.20;;;26.02;;
52210;SDS011;38179;52.756;6.906;2023-05-15T08:32:02;28.60;;;25.77;;
52210;SDS011;38179;52.756;6.906;2023-05-15T08:34:28;28.38;;;25.67;;
52210;SDS011;38179;52.756;6.906;2023-05-15T08:36:54;29.05;;;25.90;;
52210;SDS011;38179;52.756;6.906;2023-05-15T08:39:20;28.02;;;25.17;;
52210;SDS011;38179;52.756;6.906;2023-05-15T08:41:49;28.27;;;25.55;;
52210;SDS011;38179;52.756;6.906;2023-05-15T08:44:21;27.40;;;24.60;;
52210;SDS011;38179;52.756;6.906;2023-05-15T08:46:48;27.25;;;24.48;;
52210;SDS011;38179;52.756;6.906;2023-05-15T08:51:48;27.92;;;24.98;;
52210;SDS011;38179;52.756;6.906;2023-05-15T08:54:14;28.02;;;25.13;;
52210;SDS011;38179;52.756;6.906;2023-05-15T08:56:41;28.00;;;24.90;;
52210;SDS011;38179;52.756;6.906;2023-05-15T08:59:07;27.85;;;25.15;;
52210;SDS011;38179;52.756;6.906;2023-05-15T09:01:33;27.35;;;24.65;;
52210;SDS011;38179;52.756;6.906;2023-05-15T09:04:00;28.98;;;25.92;;
52210;SDS011;38179;52.756;6.906;2023-05-15T09:06:26;26.55;;;23.95;;
52210;SDS011;38179;52.756;6.906;2023-05-15T09:08:53;28.38;;;25.55;;
52210;SDS011;38179;52.756;6.906;2023-05-15T09:11:21;26.45;;;23.77;;
52210;SDS011;38179;52.756;6.906;2023-05-15T09:13:49;27.77;;;23.30;;
52210;SDS011;38179;52.756;6.906;2023-05-15T09:16:15;26.35;;;23.60;;
52210;SDS011;38179;52.756;6.906;2023-05-15T09:18:40;26.45;;;23.75;;
52210;SDS011;38179;52.756;6.906;2023-05-15T09:21:27;26.00;;;23.42;;
52210;SDS011;38179;52.756;6.906;2023-05-15T09:24:13;24.55;;;22.15;;
52210;SDS011;38179;52.756;6.906;2023-05-15T09:27:03;24.35;;;22.00;;
52210;SDS011;38179;52.756;6.906;2023-05-15T09:29:31;25.50;;;22.80;;
52210;SDS011;38179;52.756;6.906;2023-05-15T09:32:16;23.65;;;21.33;;
52210;SDS011;38179;52.756;6.906;2023-05-15T09:34:43;21.67;;;19.67;;
52210;SDS011;38179;52.756;6.906;2023-05-15T09:37:11;24.92;;;22.65;;
52210;SDS011;38179;52.756;6.906;2023-05-15T09:39:52;23.20;;;21.00;;
52210;SDS011;38179;52.756;6.906;2023-05-15T09:42:18;23.60;;;21.42;;
52210;SDS011;38179;52.756;6.906;2023-05-15T09:44:44;22.65;;;20.42;;
52210;SDS011;38179;52.756;6.906;2023-05-15T09:47:13;23.83;;;21.58;;
52210;SDS011;38179;52.756;6.906;2023-05-15T09:49:44;24.92;;;22.42;;
52210;SDS011;38179;52.756;6.906;2023-05-15T09:52:11;23.80;;;21.50;;
52210;SDS011;38179;52.756;6.906;2023-05-15T09:54:37;22.60;;;20.60;;
52210;SDS011;38179;52.756;6.906;2023-05-15T09:57:07;23.05;;;20.65;;
52210;SDS011;38179;52.756;6.906;2023-05-15T09:59:47;22.65;;;19.52;;
52210;SDS011;38179;52.756;6.906;2023-05-15T10:02:23;20.80;;;18.90;;
52210;SDS011;38179;52.756;6.906;2023-05-15T10:04:55;21.40;;;19.15;;
52210;SDS011;38179;52.756;6.906;2023-05-15T10:07:28;23.00;;;20.73;;
52210;SDS011;38179;52.756;6.906;2023-05-15T10:09:59;23.17;;;20.88;;
52210;SDS011;38179;52.756;6.906;2023-05-15T10:12:27;23.45;;;21.13;;
52210;SDS011;38179;52.756;6.906;2023-05-15T10:14:55;24.10;;;21.85;;
52210;SDS011;38179;52.756;6.906;2023-05-15T10:17:22;23.65;;;21.55;;
52210;SDS011;38179;52.756;6.906;2023-05-15T10:19:49;23.20;;;20.95;;
52210;SDS011;38179;52.756;6.906;2023-05-15T10:22:19;24.02;;;21.52;;
52210;SDS011;38179;52.756;6.906;2023-05-15T10:24:56;25.20;;;22.90;;
52210;SDS011;38179;52.756;6.906;2023-05-15T10:27:33;24.13;;;22.00;;
52210;SDS011;38179;52.756;6.906;2023-05-15T10:30:02;23.57;;;21.23;;
52210;SDS011;38179;52.756;6.906;2023-05-15T10:32:28;24.40;;;22.20;;
52210;SDS011;38179;52.756;6.906;2023-05-15T10:34:54;25.52;;;22.83;;
52210;SDS011;38179;52.756;6.906;2023-05-15T10:37:21;26.23;;;23.65;;
52210;SDS011;38179;52.756;6.906;2023-05-15T10:39:48;25.48;;;22.90;;
52210;SDS011;38179;52.756;6.906;2023-05-15T10:42:17;24.13;;;21.77;;
52210;SDS011;38179;52.756;6.906;2023-05-15T10:44:44;24.13;;;21.88;;
52210;SDS011;38179;52.756;6.906;2023-05-15T10:47:10;23.83;;;21.52;;
52210;SDS011;38179;52.756;6.906;2023-05-15T10:49:36;22.80;;;20.77;;
52210;SDS011;38179;52.756;6.906;2023-05-15T10:52:02;23.30;;;21.20;;
52210;SDS011;38179;52.756;6.906;2023-05-15T10:54:28;22.13;;;20.17;;
52210;SDS011;38179;52.756;6.906;2023-05-15T10:56:54;23.25;;;21.13;;
52210;SDS011;38179;52.756;6.906;2023-05-15T10:59:21;23.45;;;21.17;;
52210;SDS011;38179;52.756;6.906;2023-05-15T11:05:02;21.88;;;19.92;;
52210;SDS011;38179;52.756;6.906;2023-05-15T11:07:28;21.98;;;20.08;;
52210;SDS011;38179;52.756;6.906;2023-05-15T11:09:56;21.05;;;19.25;;
52210;SDS011;38179;52.756;6.906;2023-05-15T11:12:22;19.80;;;17.85;;
52210;SDS011;38179;52.756;6.906;2023-05-15T11:17:24;23.27;;;21.13;;
52210;SDS011;38179;52.756;6.906;2023-05-15T11:22:26;20.40;;;18.40;;
52210;SDS011;38179;52.756;6.906;2023-05-15T11:25:04;21.33;;;19.33;;
52210;SDS011;38179;52.756;6.906;2023-05-15T11:27:40;22.15;;;19.92;;
52210;SDS011;38179;52.756;6.906;2023-05-15T11:38:10;22.90;;;20.90;;
52210;SDS011;38179;52.756;6.906;2023-05-15T11:40:53;22.92;;;20.73;;
52210;SDS011;38179;52.756;6.906;2023-05-15T11:43:25;25.23;;;20.73;;
52210;SDS011;38179;52.756;6.906;2023-05-15T11:48:43;23.35;;;20.98;;
52210;SDS011;38179;52.756;6.906;2023-05-15T11:53:41;23.25;;;21.17;;
52210;SDS011;38179;52.756;6.906;2023-05-15T11:56:11;22.50;;;20.50;;
52210;SDS011;38179;52.756;6.906;2023-05-15T11:58:41;24.73;;;22.23;;
52210;SDS011;38179;52.756;6.906;2023-05-15T12:01:09;24.10;;;21.80;;
52210;SDS011;38179;52.756;6.906;2023-05-15T12:03:36;24.98;;;22.73;;
52210;SDS011;38179;52.756;6.906;2023-05-15T12:06:02;22.35;;;20.50;;
52210;SDS011;38179;52.756;6.906;2023-05-15T12:08:35;23.00;;;20.98;;
52210;SDS011;38179;52.756;6.906;2023-05-15T12:11:06;23.77;;;21.33;;
52210;SDS011;38179;52.756;6.906;2023-05-15T12:13:33;24.15;;;21.70;;
52210;SDS011;38179;52.756;6.906;2023-05-15T12:16:00;23.67;;;21.65;;
52210;SDS011;38179;52.756;6.906;2023-05-15T12:18:27;26.35;;;23.75;;
52210;SDS011;38179;52.756;6.906;2023-05-15T12:20:57;25.42;;;23.23;;
52210;SDS011;38179;52.756;6.906;2023-05-15T12:23:24;25.73;;;23.15;;
52210;SDS011;38179;52.756;6.906;2023-05-15T12:25:53;25.50;;;22.83;;
52210;SDS011;38179;52.756;6.906;2023-05-15T12:28:23;24.88;;;21.90;;
52210;SDS011;38179;52.756;6.906;2023-05-15T12:30:50;24.77;;;22.52;;
52210;SDS011;38179;52.756;6.906;2023-05-15T12:33:17;23.75;;;21.63;;
52210;SDS011;38179;52.756;6.906;2023-05-15T12:35:44;24.08;;;21.98;;
52210;SDS011;38179;52.756;6.906;2023-05-15T12:40:51;25.40;;;23.20;;
52210;SDS011;38179;52.756;6.906;2023-05-15T12:43:18;25.83;;;23.63;;
52210;SDS011;38179;52.756;6.906;2023-05-15T12:45:45;23.83;;;21.88;;
52210;SDS011;38179;52.756;6.906;2023-05-15T12:48:14;24.42;;;22.35;;
52210;SDS011;38179;52.756;6.906;2023-05-15T12:50:42;23.02;;;21.13;;
52210;SDS011;38179;52.756;6.906;2023-05-15T12:53:11;23.83;;;21.67;;
52210;SDS011;38179;52.756;6.906;2023-05-15T12:55:41;23.95;;;21.88;;
52210;SDS011;38179;52.756;6.906;2023-05-15T12:58:09;23.10;;;21.15;;
52210;SDS011;38179;52.756;6.906;2023-05-15T13:00:37;23.67;;;21.70;;
52210;SDS011;38179;52.756;6.906;2023-05-15T13:03:06;22.85;;;20.85;;
52210;SDS011;38179;52.756;6.906;2023-05-15T13:05:34;22.92;;;20.92;;
52210;SDS011;38179;52.756;6.906;2023-05-15T13:08:01;24.17;;;22.13;;
52210;SDS011;38179;52.756;6.906;2023-05-15T13:10:30;23.98;;;21.98;;
52210;SDS011;38179;52.756;6.906;2023-05-15T13:12:56;24.55;;;22.48;;
52210;SDS011;38179;52.756;6.906;2023-05-15T13:15:31;23.08;;;21.08;;
52210;SDS011;38179;52.756;6.906;2023-05-15T13:18:08;23.30;;;21.30;;
52210;SDS011;38179;52.756;6.906;2023-05-15T13:20:36;22.30;;;20.38;;
52210;SDS011;38179;52.756;6.906;2023-05-15T13:23:08;22.25;;;20.20;;
52210;SDS011;38179;52.756;6.906;2023-05-15T13:25:35;22.25;;;20.35;;
52210;SDS011;38179;52.756;6.906;2023-05-15T13:28:02;22.30;;;20.45;;
52210;SDS011;38179;52.756;6.906;2023-05-15T13:30:30;21.88;;;20.08;;
52210;SDS011;38179;52.756;6.906;2023-05-15T13:32:57;22.50;;;20.30;;
52210;SDS011;38179;52.756;6.906;2023-05-15T13:35:23;22.73;;;20.77;;
52210;SDS011;38179;52.756;6.906;2023-05-15T13:37:49;20.95;;;19.35;;
52210;SDS011;38179;52.756;6.906;2023-05-15T13:40:15;20.98;;;19.27;;
52210;SDS011;38179;52.756;6.906;2023-05-15T13:42:41;21.83;;;19.90;;
52210;SDS011;38179;52.756;6.906;2023-05-15T13:45:09;21.83;;;20.02;;
52210;SDS011;38179;52.756;6.906;2023-05-15T13:47:36;21.42;;;19.75;;
52210;SDS011;38179;52.756;6.906;2023-05-15T13:50:04;21.45;;;19.65;;
52210;SDS011;38179;52.756;6.906;2023-05-15T13:52:30;21.33;;;19.63;;
52210;SDS011;38179;52.756;6.906;2023-05-15T13:54:56;21.55;;;19.75;;
52210;SDS011;38179;52.756;6.906;2023-05-15T13:57:22;23.35;;;21.25;;
52210;SDS011;38179;52.756;6.906;2023-05-15T13:59:48;22.85;;;20.95;;
52210;SDS011;38179;52.756;6.906;2023-05-15T14:02:14;23.05;;;20.98;;
52210;SDS011;38179;52.756;6.906;2023-05-15T14:04:40;22.52;;;20.73;;
52210;SDS011;38179;52.756;6.906;2023-05-15T14:07:06;21.75;;;19.95;;
52210;SDS011;38179;52.756;6.906;2023-05-15T14:09:32;22.35;;;20.55;;
52210;SDS011;38179;52.756;6.906;2023-05-15T14:11:58;22.10;;;20.20;;
52210;SDS011;38179;52.756;6.906;2023-05-15T14:14:23;21.83;;;19.95;;
52210;SDS011;38179;52.756;6.906;2023-05-15T14:16:49;20.67;;;19.08;;
52210;SDS011;38179;52.756;6.906;2023-05-15T14:19:15;19.75;;;18.25;;
52210;SDS011;38179;52.756;6.906;2023-05-15T14:21:41;21.10;;;19.13;;
52210;SDS011;38179;52.756;6.906;2023-05-15T14:24:07;21.20;;;19.52;;
52210;SDS011;38179;52.756;6.906;2023-05-15T14:26:33;21.30;;;19.30;;
52210;SDS011;38179;52.756;6.906;2023-05-15T14:28:59;22.42;;;20.63;;
52210;SDS011;38179;52.756;6.906;2023-05-15T14:31:24;22.13;;;19.90;;
52210;SDS011;38179;52.756;6.906;2023-05-15T14:33:52;21.73;;;19.92;;
52210;SDS011;38179;52.756;6.906;2023-05-15T14:36:18;23.07;;;21.20;;
52210;SDS011;38179;52.756;6.906;2023-05-15T14:38:44;23.25;;;21.23;;
52210;SDS011;38179;52.756;6.906;2023-05-15T14:41:12;22.15;;;20.00;;
52210;SDS011;38179;52.756;6.906;2023-05-15T14:43:38;22.13;;;20.33;;
52210;SDS011;38179;52.756;6.906;2023-05-15T14:46:04;23.13;;;21.10;;
52210;SDS011;38179;52.756;6.906;2023-05-15T14:48:30;24.02;;;21.80;;
52210;SDS011;38179;52.756;6.906;2023-05-15T14:50:58;24.00;;;21.90;;
52210;SDS011;38179;52.756;6.906;2023-05-15T14:53:25;23.38;;;21.27;;
52210;SDS011;38179;52.756;6.906;2023-05-15T14:55:52;22.38;;;20.58;;
52210;SDS011;38179;52.756;6.906;2023-05-15T14:58:19;21.95;;;19.75;;
52210;SDS011;38179;52.756;6.906;2023-05-15T15:00:45;22.85;;;21.00;;
52210;SDS011;38179;52.756;6.906;2023-05-15T15:03:12;22.08;;;20.27;;
52210;SDS011;38179;52.756;6.906;2023-05-15T15:05:38;23.33;;;21.25;;
52210;SDS011;38179;52.756;6.906;2023-05-15T15:08:05;23.40;;;21.25;;